Time;durP1;ratioP1;P1;durP2;ratioP2;P2;SDS_P1;SDS_P2;PMS_P1;PMS_P2;Temp;Humidity;BMP_temperature;BMP_pressure;BME280_temperature;BME280_humidity;BME280_pressure;Samples;Min_cycle;Max_cycle;Signal;HPM_P1;HPM_P2
2022/07/13 00:00:11;;;;;;;2.20;1.40;;;;;;;;;;508127;29;1161;-88
2022/07/13 00:00:27;;;;;;;2.67;1.50;;;;;;;;;;509152;29;1353;-88
2022/07/13 00:00:42;;;;;;;2.00;1.30;;;;;;;;;;508246;29;1180;-88
2022/07/13 00:00:58;;;;;;;1.48;1.30;;;;;;;;;;508127;29;829;-88
2022/07/13 00:01:13;;;;;;;1.77;1.30;;;;;;;;;;510010;29;1392;-88
2022/07/13 00:01:30;;;;;;;1.80;1.38;;;;;;;;;;509990;29;1536;-88
2022/07/13 00:01:46;;;;;;;1.45;1.35;;;;;;;;;;511200;29;854;-88
2022/07/13 00:02:01;;;;;;;2.10;1.40;;;;;;;;;;509998;29;1380;-88
2022/07/13 00:02:16;;;;;;;2.10;1.30;;;;;;;;;;511271;29;1087;-88
2022/07/13 00:02:32;;;;;;;1.87;1.30;;;;;;;;;;509391;29;1295;-88
2022/07/13 00:02:47;;;;;;;2.13;1.40;;;;;;;;;;506957;29;1354;-88
2022/07/13 00:03:03;;;;;;;1.60;1.20;;;;;;;;;;506780;29;1178;-88
2022/07/13 00:03:18;;;;;;;1.50;1.20;;;;;;;;;;506189;29;913;-88
2022/07/13 00:03:34;;;;;;;1.63;1.30;;;;;;;;;;506150;29;1239;-87
2022/07/13 00:03:49;;;;;;;1.33;1.20;;;;;;;;;;506353;29;889;-88
2022/07/13 00:04:04;;;;;;;1.27;1.17;;;;;;;;;;505923;29;1198;-87
2022/07/13 00:04:20;;;;;;;2.20;1.27;;;;;;;;;;506906;29;1166;-88
2022/07/13 00:04:36;;;;;;;2.25;1.30;;;;;;;;;;508468;29;885;-88
2022/07/13 00:04:51;;;;;;;1.40;1.30;;;;;;;;;;509214;29;1443;-88
2022/07/13 00:05:07;;;;;;;1.40;1.30;;;;;;;;;;508821;29;1150;-88
2022/07/13 00:05:22;;;;;;;1.40;1.30;;;;;;;;;;510494;29;1163;-88
2022/07/13 00:05:38;;;;;;;1.33;1.20;;;;;;;;;;511677;29;871;-88
2022/07/13 00:05:53;;;;;;;1.58;1.23;;;;;;;;;;509717;29;1253;-87
2022/07/13 00:06:09;;;;;;;1.40;1.30;;;;;;;;;;508056;29;1193;-88
2022/07/13 00:06:24;;;;;;;1.60;1.20;;;;;;;;;;508020;29;1257;-87
2022/07/13 00:06:40;;;;;;;1.63;1.20;;;;;;;;;;508015;29;1298;-87
2022/07/13 00:06:55;;;;;;;1.63;1.30;;;;;;;;;;507673;29;1016;-87
2022/07/13 00:07:10;;;;;;;1.77;1.40;;;;;;;;;;507855;29;1186;-87
2022/07/13 00:07:26;;;;;;;2.33;1.40;;;;;;;;;;508142;29;1282;-87
2022/07/13 00:07:41;;;;;;;2.30;1.20;;;;;;;;;;508405;29;892;-88
2022/07/13 00:07:57;;;;;;;2.40;1.20;;;;;;;;;;510251;29;869;-88
2022/07/13 00:08:12;;;;;;;2.60;1.20;;;;;;;;;;510114;29;930;-87
2022/07/13 00:08:28;;;;;;;1.63;1.30;;;;;;;;;;509199;29;1291;-87
2022/07/13 00:08:44;;;;;;;1.40;1.30;;;;;;;;;;510085;29;892;-87
2022/07/13 00:08:59;;;;;;;1.30;1.20;;;;;;;;;;510236;29;1024;-87
2022/07/13 00:09:15;;;;;;;1.60;1.30;;;;;;;;;;506986;29;1234;-87
2022/07/13 00:09:30;;;;;;;2.15;1.40;;;;;;;;;;506114;29;889;-87
2022/07/13 00:09:46;;;;;;;1.73;1.40;;;;;;;;;;506131;29;873;-87
2022/07/13 00:10:03;;;;;;;1.50;1.40;;;;;;;;;;506619;29;1312;-87
2022/07/13 00:10:19;;;;;;;1.50;1.40;;;;;;;;;;508644;29;1384;-88
2022/07/13 00:10:34;;;;;;;1.70;1.30;;;;;;;;;;508566;29;1369;-87
2022/07/13 00:10:50;;;;;;;1.90;1.40;;;;;;;;;;506304;29;1221;-87
2022/07/13 00:11:05;;;;;;;1.77;1.40;;;;;;;;;;508589;29;786;-87
2022/07/13 00:11:20;;;;;;;2.28;1.40;;;;;;;;;;508130;29;1198;-88
2022/07/13 00:11:36;;;;;;;2.60;1.40;;;;;;;;;;507873;29;1185;-86
2022/07/13 00:11:51;;;;;;;1.93;1.37;;;;;;;;;;506247;29;1317;-88
2022/07/13 00:12:07;;;;;;;1.70;1.40;;;;;;;;;;506264;29;1429;-87
2022/07/13 00:12:23;;;;;;;2.38;1.40;;;;;;;;;;506316;29;1294;-88
2022/07/13 00:12:38;;;;;;;2.57;1.50;;;;;;;;;;506683;29;917;-87
2022/07/13 00:12:54;;;;;;;2.30;1.40;;;;;;;;;;506282;29;1317;-88
2022/07/13 00:13:09;;;;;;;1.93;1.23;;;;;;;;;;506269;29;949;-87
2022/07/13 00:13:25;;;;;;;1.60;1.20;;;;;;;;;;507690;29;1644;-88
2022/07/13 00:13:40;;;;;;;2.23;1.30;;;;;;;;;;505842;29;1147;-87
2022/07/13 00:13:56;;;;;;;2.22;1.20;;;;;;;;;;504203;29;1032;-88
2022/07/13 00:14:11;;;;;;;2.20;1.23;;;;;;;;;;504340;29;869;-87
2022/07/13 00:14:27;;;;;;;1.95;1.20;;;;;;;;;;508076;29;1195;-87
2022/07/13 00:14:42;;;;;;;1.30;1.20;;;;;;;;;;508159;29;817;-88
2022/07/13 00:14:58;;;;;;;1.80;1.30;;;;;;;;;;508077;29;787;-88
2022/07/13 00:15:13;;;;;;;1.77;1.30;;;;;;;;;;508518;29;826;-88
2022/07/13 00:15:28;;;;;;;1.33;1.20;;;;;;;;;;510449;29;924;-88
2022/07/13 00:15:44;;;;;;;1.20;1.10;;;;;;;;;;511624;29;841;-88
2022/07/13 00:16:00;;;;;;;1.50;1.10;;;;;;;;;;507952;29;1333;-88
2022/07/13 00:16:16;;;;;;;2.00;1.30;;;;;;;;;;508052;29;877;-88
2022/07/13 00:16:31;;;;;;;1.80;1.30;;;;;;;;;;508150;29;872;-87
2022/07/13 00:16:46;;;;;;;1.80;1.40;;;;;;;;;;506163;29;1304;-87
2022/07/13 00:17:02;;;;;;;1.83;1.30;;;;;;;;;;504427;29;1344;-88
2022/07/13 00:17:17;;;;;;;1.93;1.20;;;;;;;;;;504319;29;1348;-88
2022/07/13 00:17:33;;;;;;;1.63;1.30;;;;;;;;;;506053;29;1056;-87
2022/07/13 00:17:48;;;;;;;1.27;1.13;;;;;;;;;;508172;29;1213;-88
2022/07/13 00:18:04;;;;;;;1.73;1.10;;;;;;;;;;508052;29;1226;-88
2022/07/13 00:18:19;;;;;;;2.30;1.23;;;;;;;;;;506545;29;1180;-88
2022/07/13 00:18:34;;;;;;;2.87;1.23;;;;;;;;;;508106;29;1196;-87
2022/07/13 00:18:50;;;;;;;3.03;1.30;;;;;;;;;;508025;29;1196;-88
2022/07/13 00:19:05;;;;;;;1.93;1.30;;;;;;;;;;508900;29;857;-87
2022/07/13 00:19:21;;;;;;;2.10;1.35;;;;;;;;;;508227;29;1215;-88
2022/07/13 00:19:36;;;;;;;2.17;1.33;;;;;;;;;;508216;29;888;-87
2022/07/13 00:19:52;;;;;;;1.97;1.23;;;;;;;;;;507485;29;1907;-88
2022/07/13 00:20:08;;;;;;;1.65;1.20;;;;;;;;;;508103;29;944;-87
2022/07/13 00:20:23;;;;;;;1.63;1.17;;;;;;;;;;508505;29;1360;-87
2022/07/13 00:20:39;;;;;;;1.93;1.20;;;;;;;;;;508538;29;1178;-88
2022/07/13 00:20:54;;;;;;;2.35;1.30;;;;;;;;;;510174;29;951;-88
2022/07/13 00:21:10;;;;;;;1.95;1.30;;;;;;;;;;508326;29;1166;-88
2022/07/13 00:21:25;;;;;;;1.43;1.20;;;;;;;;;;506306;29;1492;-88
2022/07/13 00:21:40;;;;;;;1.20;1.10;;;;;;;;;;506398;29;1250;-88
2022/07/13 00:21:56;;;;;;;1.77;1.15;;;;;;;;;;506450;29;1258;-88
2022/07/13 00:22:11;;;;;;;1.63;1.10;;;;;;;;;;506136;29;1000;-88
2022/07/13 00:22:27;;;;;;;2.10;1.20;;;;;;;;;;506549;29;1198;-88
2022/07/13 00:22:42;;;;;;;2.45;1.30;;;;;;;;;;508261;29;1277;-88
2022/07/13 00:22:57;;;;;;;1.60;1.20;;;;;;;;;;510206;29;1279;-88
2022/07/13 00:23:13;;;;;;;1.60;1.33;;;;;;;;;;510084;29;1178;-88
2022/07/13 00:23:28;;;;;;;2.50;1.40;;;;;;;;;;509934;29;916;-88
2022/07/13 00:23:44;;;;;;;3.10;1.23;;;;;;;;;;508204;29;1175;-87
2022/07/13 00:23:59;;;;;;;2.90;1.23;;;;;;;;;;508205;29;999;-87
2022/07/13 00:24:15;;;;;;;2.17;1.30;;;;;;;;;;508222;29;818;-87
2022/07/13 00:24:30;;;;;;;1.75;1.20;;;;;;;;;;508175;29;872;-87
2022/07/13 00:24:45;;;;;;;2.23;1.10;;;;;;;;;;509601;29;1285;-88
2022/07/13 00:25:01;;;;;;;1.77;1.07;;;;;;;;;;509852;29;1250;-88
2022/07/13 00:25:16;;;;;;;1.42;1.10;;;;;;;;;;508254;29;940;-88
2022/07/13 00:25:32;;;;;;;2.00;1.17;;;;;;;;;;509905;29;1182;-87
2022/07/13 00:25:47;;;;;;;1.63;1.10;;;;;;;;;;510296;29;912;-87
2022/07/13 00:26:03;;;;;;;1.67;1.10;;;;;;;;;;510013;29;1239;-87
2022/07/13 00:26:18;;;;;;;3.00;1.30;;;;;;;;;;509961;29;1143;-88
2022/07/13 00:26:34;;;;;;;3.30;1.40;;;;;;;;;;509982;29;942;-87
2022/07/13 00:26:49;;;;;;;2.13;1.30;;;;;;;;;;510016;29;1328;-88
2022/07/13 00:27:04;;;;;;;1.40;1.20;;;;;;;;;;510271;29;1134;-87
2022/07/13 00:27:20;;;;;;;1.53;1.10;;;;;;;;;;508267;29;1226;-88
2022/07/13 00:27:35;;;;;;;2.08;1.08;;;;;;;;;;508418;29;905;-88
2022/07/13 00:27:51;;;;;;;2.40;1.10;;;;;;;;;;508682;29;874;-88
2022/07/13 00:28:06;;;;;;;2.50;1.17;;;;;;;;;;509954;29;1320;-88
2022/07/13 00:28:21;;;;;;;2.23;1.20;;;;;;;;;;508355;29;1282;-88
2022/07/13 00:28:37;;;;;;;1.40;1.10;;;;;;;;;;508693;29;989;-88
2022/07/13 00:28:53;;;;;;;1.10;1.00;;;;;;;;;;510184;29;916;-87
2022/07/13 00:29:08;;;;;;;1.30;1.00;;;;;;;;;;510167;29;873;-87
2022/07/13 00:29:23;;;;;;;1.37;1.00;;;;;;;;;;509976;29;1292;-87
2022/07/13 00:29:39;;;;;;;1.70;1.17;;;;;;;;;;510251;29;849;-88
2022/07/13 00:29:54;;;;;;;1.85;1.15;;;;;;;;;;510068;29;1328;-87
2022/07/13 00:30:10;;;;;;;2.13;1.10;;;;;;;;;;510012;29;1340;-87
2022/07/13 00:30:25;;;;;;;2.10;1.30;;;;;;;;;;510007;29;840;-88
2022/07/13 00:30:41;;;;;;;1.67;1.10;;;;;;;;;;509946;29;952;-88
2022/07/13 00:30:56;;;;;;;2.13;0.93;;;;;;;;;;509975;29;1048;-87
2022/07/13 00:31:12;;;;;;;2.30;1.07;;;;;;;;;;510434;29;1284;-87
2022/07/13 00:31:27;;;;;;;1.67;1.20;;;;;;;;;;512141;29;916;-87
2022/07/13 00:31:42;;;;;;;1.30;1.10;;;;;;;;;;512401;29;920;-88
2022/07/13 00:31:59;;;;;;;1.27;1.10;;;;;;;;;;509824;29;1269;-88
2022/07/13 00:32:15;;;;;;;2.10;1.10;;;;;;;;;;510000;29;1423;-87
2022/07/13 00:32:30;;;;;;;1.92;1.15;;;;;;;;;;510216;29;917;-88
2022/07/13 00:32:46;;;;;;;2.77;1.20;;;;;;;;;;510192;29;909;-88
2022/07/13 00:33:01;;;;;;;3.50;1.30;;;;;;;;;;510208;29;1283;-87
2022/07/13 00:33:17;;;;;;;2.60;1.23;;;;;;;;;;510400;29;1063;-87
2022/07/13 00:33:32;;;;;;;1.90;1.10;;;;;;;;;;510277;29;900;-87
2022/07/13 00:33:48;;;;;;;1.60;1.15;;;;;;;;;;510067;29;1302;-88
2022/07/13 00:34:03;;;;;;;1.80;1.20;;;;;;;;;;509653;29;1244;-87
2022/07/13 00:34:18;;;;;;;1.50;1.20;;;;;;;;;;510094;28;1217;-87
2022/07/13 00:34:34;;;;;;;1.25;1.10;;;;;;;;;;510072;29;833;-88
2022/07/13 00:34:49;;;;;;;1.30;1.03;;;;;;;;;;510464;29;801;-87
2022/07/13 00:35:05;;;;;;;1.80;1.00;;;;;;;;;;512005;29;1157;-87
2022/07/13 00:35:21;;;;;;;2.10;1.00;;;;;;;;;;511956;29;1130;-88
2022/07/13 00:35:36;;;;;;;1.90;1.10;;;;;;;;;;511343;28;1232;-88
2022/07/13 00:35:51;;;;;;;1.67;1.07;;;;;;;;;;510045;29;1282;-88
2022/07/13 00:36:07;;;;;;;2.25;1.13;;;;;;;;;;510023;29;809;-87
2022/07/13 00:36:22;;;;;;;3.00;1.27;;;;;;;;;;510041;29;920;-88
2022/07/13 00:36:37;;;;;;;2.05;1.17;;;;;;;;;;511900;29;1210;-87
2022/07/13 00:36:53;;;;;;;2.37;1.13;;;;;;;;;;511529;29;2072;-87
2022/07/13 00:37:08;;;;;;;2.50;1.23;;;;;;;;;;509774;29;1198;-87
2022/07/13 00:37:24;;;;;;;2.03;1.20;;;;;;;;;;508409;29;901;-88
2022/07/13 00:37:39;;;;;;;1.80;1.20;;;;;;;;;;508248;29;1397;-87
2022/07/13 00:37:55;;;;;;;1.60;1.15;;;;;;;;;;508032;29;861;-88
2022/07/13 00:38:10;;;;;;;2.00;1.20;;;;;;;;;;506155;29;1159;-86
2022/07/13 00:38:26;;;;;;;1.95;1.20;;;;;;;;;;506221;29;794;-87
2022/07/13 00:38:41;;;;;;;1.83;1.20;;;;;;;;;;506241;29;942;-88
2022/07/13 00:38:56;;;;;;;1.63;1.23;;;;;;;;;;506712;29;909;-88
2022/07/13 00:39:12;;;;;;;1.88;1.27;;;;;;;;;;508346;29;1179;-88
2022/07/13 00:39:27;;;;;;;2.60;1.30;;;;;;;;;;510034;29;1160;-88
2022/07/13 00:39:43;;;;;;;4.20;1.20;;;;;;;;;;510263;29;1982;-88
2022/07/13 00:39:58;;;;;;;3.60;1.20;;;;;;;;;;510179;28;1451;-88
2022/07/13 00:40:14;;;;;;;1.70;1.20;;;;;;;;;;510509;29;988;-88
2022/07/13 00:40:29;;;;;;;1.70;1.10;;;;;;;;;;510299;29;913;-87
2022/07/13 00:40:45;;;;;;;1.93;1.20;;;;;;;;;;508255;29;1194;-87
2022/07/13 00:41:00;;;;;;;1.95;1.25;;;;;;;;;;508664;29;1007;-88
2022/07/13 00:41:15;;;;;;;2.60;1.30;;;;;;;;;;510187;29;794;-88
2022/07/13 00:41:31;;;;;;;2.38;1.20;;;;;;;;;;510329;29;1177;-87
2022/07/13 00:41:47;;;;;;;1.73;1.10;;;;;;;;;;510344;29;864;-88
2022/07/13 00:42:03;;;;;;;1.73;1.10;;;;;;;;;;510325;29;1004;-88
2022/07/13 00:42:18;;;;;;;1.10;1.00;;;;;;;;;;510231;29;1146;-88
2022/07/13 00:42:34;;;;;;;1.37;1.07;;;;;;;;;;510349;29;935;-87
2022/07/13 00:42:49;;;;;;;1.40;1.08;;;;;;;;;;508283;29;1182;-88
2022/07/13 00:43:04;;;;;;;1.10;1.00;;;;;;;;;;510256;29;1142;-87
2022/07/13 00:43:20;;;;;;;1.50;1.10;;;;;;;;;;510785;29;1027;-87
2022/07/13 00:43:35;;;;;;;2.13;1.20;;;;;;;;;;512375;29;857;-88
2022/07/13 00:43:52;;;;;;;2.13;1.20;;;;;;;;;;510062;29;1189;-88
2022/07/13 00:44:11;;;;;;;2.50;1.15;;;;;;;;;;510129;29;884;-88
2022/07/13 00:44:26;;;;;;;2.97;1.20;;;;;;;;;;509973;29;872;-88
2022/07/13 00:44:42;;;;;;;2.43;1.20;;;;;;;;;;510184;29;968;-87
2022/07/13 00:44:57;;;;;;;2.75;1.20;;;;;;;;;;510030;29;1198;-87
2022/07/13 00:45:12;;;;;;;2.10;1.10;;;;;;;;;;510139;29;980;-88
2022/07/13 00:45:28;;;;;;;1.40;1.10;;;;;;;;;;510018;29;1362;-87
2022/07/13 00:45:43;;;;;;;1.20;1.10;;;;;;;;;;510202;29;809;-87
2022/07/13 00:45:59;;;;;;;1.50;1.20;;;;;;;;;;510033;29;972;-88
2022/07/13 00:46:15;;;;;;;2.42;1.30;;;;;;;;;;508135;29;901;-88
2022/07/13 00:46:30;;;;;;;2.38;1.30;;;;;;;;;;508214;29;814;-88
2022/07/13 00:46:54;;;;;;;2.08;1.35;;;;;;;;;;508600;29;814;-87
2022/07/13 00:47:10;;;;;;;1.83;1.13;;;;;;;;;;510044;29;1248;-88
2022/07/13 00:47:31;;;;;;;1.63;1.13;;;;;;;;;;508183;29;1271;-88
2022/07/13 00:47:49;;;;;;;1.80;1.23;;;;;;;;;;508317;29;936;-87
2022/07/13 00:48:05;;;;;;;1.88;1.15;;;;;;;;;;508447;29;967;-87
2022/07/13 00:48:22;;;;;;;1.95;1.13;;;;;;;;;;508358;29;965;-87
2022/07/13 00:48:38;;;;;;;1.40;1.10;;;;;;;;;;508391;29;877;-88
2022/07/13 00:48:53;;;;;;;1.77;1.02;;;;;;;;;;510285;29;1454;-88
2022/07/13 00:49:10;;;;;;;2.43;1.20;;;;;;;;;;510369;29;1101;-88
2022/07/13 00:49:25;;;;;;;2.17;1.13;;;;;;;;;;510154;29;1264;-88
2022/07/13 00:49:41;;;;;;;1.90;1.10;;;;;;;;;;510243;29;1240;-88
2022/07/13 00:49:57;;;;;;;1.83;1.20;;;;;;;;;;510277;29;1430;-87
2022/07/13 00:50:13;;;;;;;1.95;1.15;;;;;;;;;;510107;29;966;-88
2022/07/13 00:50:28;;;;;;;2.05;1.20;;;;;;;;;;510069;29;1161;-88
2022/07/13 00:50:45;;;;;;;2.13;1.40;;;;;;;;;;510050;29;1130;-88
2022/07/13 00:51:00;;;;;;;2.40;1.40;;;;;;;;;;510197;29;940;-88
2022/07/13 00:51:16;;;;;;;2.43;1.20;;;;;;;;;;510126;29;893;-88
2022/07/13 00:51:31;;;;;;;2.57;1.20;;;;;;;;;;510743;29;956;-88
2022/07/13 00:51:47;;;;;;;3.08;1.20;;;;;;;;;;511523;29;1015;-88
2022/07/13 00:52:03;;;;;;;2.75;1.20;;;;;;;;;;510137;29;955;-88
2022/07/13 00:52:18;;;;;;;1.53;1.10;;;;;;;;;;510016;29;973;-89
2022/07/13 00:52:35;;;;;;;1.20;1.10;;;;;;;;;;510096;29;1007;-88
2022/07/13 00:52:50;;;;;;;1.45;1.20;;;;;;;;;;510289;29;923;-88
2022/07/13 00:53:06;;;;;;;1.43;1.30;;;;;;;;;;510253;29;1134;-87
2022/07/13 00:53:23;;;;;;;1.50;1.25;;;;;;;;;;510166;29;924;-88
2022/07/13 00:53:39;;;;;;;2.10;1.30;;;;;;;;;;510424;29;940;-88
2022/07/13 00:53:55;;;;;;;2.60;1.20;;;;;;;;;;510196;29;1255;-88
2022/07/13 00:54:11;;;;;;;2.10;1.20;;;;;;;;;;512220;29;1313;-88
2022/07/13 00:54:29;;;;;;;1.75;1.33;;;;;;;;;;512100;29;1460;-88
2022/07/13 00:54:45;;;;;;;1.77;1.30;;;;;;;;;;510210;29;1364;-88
2022/07/13 00:55:02;;;;;;;1.52;1.30;;;;;;;;;;511004;29;971;-88
2022/07/13 00:55:18;;;;;;;2.88;1.30;;;;;;;;;;510283;29;1331;-88
2022/07/13 00:55:34;;;;;;;2.67;1.20;;;;;;;;;;510225;29;1221;-87
2022/07/13 00:55:50;;;;;;;1.98;1.20;;;;;;;;;;509157;29;873;-88
2022/07/13 00:56:06;;;;;;;2.13;1.20;;;;;;;;;;508239;29;1191;-87
2022/07/13 00:56:23;;;;;;;1.50;1.13;;;;;;;;;;505066;29;1286;-87
2022/07/13 00:56:38;;;;;;;1.42;1.05;;;;;;;;;;507102;29;1417;-87
2022/07/13 00:56:54;;;;;;;2.00;1.20;;;;;;;;;;508041;29;1155;-87
2022/07/13 00:57:14;;;;;;;2.28;1.30;;;;;;;;;;508768;29;1064;-87
2022/07/13 00:57:35;;;;;;;3.15;1.20;;;;;;;;;;509001;29;1436;-88
2022/07/13 00:57:51;;;;;;;1.67;1.15;;;;;;;;;;506253;29;1341;-88
2022/07/13 00:58:08;;;;;;;1.73;1.13;;;;;;;;;;506306;29;1180;-87
2022/07/13 00:58:24;;;;;;;2.80;1.10;;;;;;;;;;509131;29;1231;-87
2022/07/13 00:58:40;;;;;;;3.50;1.20;;;;;;;;;;506072;29;1400;-88
2022/07/13 00:58:59;;;;;;;2.40;1.40;;;;;;;;;;507769;29;1394;-88
2022/07/13 00:59:14;;;;;;;1.40;1.30;;;;;;;;;;508027;29;842;-88
2022/07/13 00:59:30;;;;;;;2.10;1.30;;;;;;;;;;508061;29;893;-88
2022/07/13 00:59:46;;;;;;;2.30;1.30;;;;;;;;;;509127;29;2024;-88
2022/07/13 01:00:09;;;;;;;1.80;1.30;;;;;;;;;;509999;29;1275;-88
2022/07/13 01:00:24;;;;;;;2.25;1.25;;;;;;;;;;512619;28;1526;-88
2022/07/13 01:00:39;;;;;;;2.63;1.20;;;;;;;;;;514037;28;940;-88
2022/07/13 01:00:55;;;;;;;1.98;1.15;;;;;;;;;;510214;29;1246;-88
2022/07/13 01:01:10;;;;;;;2.15;1.10;;;;;;;;;;508046;29;1360;-88
2022/07/13 01:01:27;;;;;;;2.43;1.20;;;;;;;;;;508167;29;868;-88
2022/07/13 01:01:42;;;;;;;2.20;1.30;;;;;;;;;;507946;29;1459;-87
2022/07/13 01:01:58;;;;;;;2.08;1.20;;;;;;;;;;508001;29;1186;-88
2022/07/13 01:02:13;;;;;;;1.63;1.20;;;;;;;;;;508167;29;787;-88
2022/07/13 01:02:28;;;;;;;1.50;1.20;;;;;;;;;;509928;29;1162;-88
2022/07/13 01:02:46;;;;;;;1.63;1.20;;;;;;;;;;509986;29;1267;-88
2022/07/13 01:03:01;;;;;;;2.55;1.27;;;;;;;;;;510038;29;1337;-88
2022/07/13 01:03:17;;;;;;;1.75;1.25;;;;;;;;;;510003;29;1070;-88
2022/07/13 01:03:32;;;;;;;1.60;1.30;;;;;;;;;;509684;29;805;-87
2022/07/13 01:03:47;;;;;;;2.27;1.20;;;;;;;;;;508069;29;1130;-87
2022/07/13 01:04:03;;;;;;;2.50;1.25;;;;;;;;;;508017;29;940;-88
2022/07/13 01:04:23;;;;;;;3.10;1.37;;;;;;;;;;508052;29;1267;-87
2022/07/13 01:04:39;;;;;;;3.45;1.42;;;;;;;;;;506346;29;1287;-88
2022/07/13 01:04:54;;;;;;;1.70;1.30;;;;;;;;;;507274;29;1004;-88
2022/07/13 01:05:10;;;;;;;1.37;1.13;;;;;;;;;;507378;29;1059;-88
2022/07/13 01:05:26;;;;;;;1.40;1.30;;;;;;;;;;508262;29;1055;-88
2022/07/13 01:05:43;;;;;;;1.60;1.20;;;;;;;;;;508032;29;1583;-88
2022/07/13 01:06:00;;;;;;;1.65;1.10;;;;;;;;;;508144;29;1493;-88
2022/07/13 01:06:17;;;;;;;1.95;1.20;;;;;;;;;;509765;29;961;-88
2022/07/13 01:06:32;;;;;;;1.63;1.20;;;;;;;;;;511170;29;909;-88
2022/07/13 01:06:48;;;;;;;1.60;1.13;;;;;;;;;;512282;29;964;-88
2022/07/13 01:07:04;;;;;;;1.70;1.25;;;;;;;;;;512147;29;1282;-87
2022/07/13 01:07:20;;;;;;;2.00;1.30;;;;;;;;;;512124;29;1250;-88
2022/07/13 01:07:35;;;;;;;1.45;1.20;;;;;;;;;;512192;28;1322;-88
2022/07/13 01:07:51;;;;;;;1.10;1.00;;;;;;;;;;512200;29;1281;-88
2022/07/13 01:08:07;;;;;;;1.13;1.03;;;;;;;;;;512247;29;856;-88
2022/07/13 01:08:23;;;;;;;2.10;1.10;;;;;;;;;;512291;29;888;-87
2022/07/13 01:08:39;;;;;;;2.22;1.20;;;;;;;;;;512316;29;1350;-87
2022/07/13 01:08:55;;;;;;;1.30;1.10;;;;;;;;;;511338;29;927;-88
2022/07/13 01:09:10;;;;;;;1.33;1.00;;;;;;;;;;510045;29;1169;-88
2022/07/13 01:09:26;;;;;;;1.70;1.10;;;;;;;;;;510012;29;1300;-87
2022/07/13 01:09:41;;;;;;;2.10;1.17;;;;;;;;;;509545;29;841;-88
2022/07/13 01:09:57;;;;;;;2.00;1.20;;;;;;;;;;507965;29;1439;-88
2022/07/13 01:10:12;;;;;;;4.82;1.40;;;;;;;;;;508295;29;1265;-88
2022/07/13 01:10:28;;;;;;;4.90;1.40;;;;;;;;;;508384;29;738;-88
2022/07/13 01:10:43;;;;;;;1.77;1.20;;;;;;;;;;508250;29;805;-87
2022/07/13 01:10:59;;;;;;;1.40;1.10;;;;;;;;;;507998;29;936;-87
2022/07/13 01:11:15;;;;;;;1.17;1.00;;;;;;;;;;508509;29;1295;-87
2022/07/13 01:11:32;;;;;;;1.20;1.00;;;;;;;;;;510013;29;920;-88
2022/07/13 01:11:48;;;;;;;1.25;1.08;;;;;;;;;;510054;29;873;-88
2022/07/13 01:12:05;;;;;;;1.63;1.15;;;;;;;;;;510878;29;950;-88
2022/07/13 01:12:21;;;;;;;1.83;1.10;;;;;;;;;;509958;29;1642;-87
2022/07/13 01:12:39;;;;;;;1.63;1.10;;;;;;;;;;510028;29;1237;-87
2022/07/13 01:12:54;;;;;;;1.52;1.10;;;;;;;;;;509975;29;1381;-87
2022/07/13 01:13:11;;;;;;;1.80;1.10;;;;;;;;;;510070;29;1256;-87
2022/07/13 01:13:27;;;;;;;1.85;1.15;;;;;;;;;;509995;29;1364;-88
2022/07/13 01:13:44;;;;;;;1.33;1.17;;;;;;;;;;510148;29;1232;-87
2022/07/13 01:14:00;;;;;;;1.48;1.17;;;;;;;;;;510131;29;1273;-87
2022/07/13 01:14:16;;;;;;;1.60;1.27;;;;;;;;;;510190;29;1468;-88
2022/07/13 01:14:31;;;;;;;1.50;1.30;;;;;;;;;;508226;29;1202;-88
2022/07/13 01:14:47;;;;;;;1.60;1.20;;;;;;;;;;508244;29;853;-88
2022/07/13 01:15:04;;;;;;;2.08;1.10;;;;;;;;;;508205;29;952;-87
2022/07/13 01:15:21;;;;;;;2.72;1.13;;;;;;;;;;508124;29;928;-88
2022/07/13 01:15:37;;;;;;;2.10;1.10;;;;;;;;;;509013;29;1323;-88
2022/07/13 01:15:53;;;;;;;2.08;1.05;;;;;;;;;;511004;29;1412;-88
2022/07/13 01:16:09;;;;;;;2.25;1.15;;;;;;;;;;511181;29;1202;-87
2022/07/13 01:16:24;;;;;;;2.50;1.20;;;;;;;;;;508995;29;1437;-88
2022/07/13 01:16:41;;;;;;;2.60;1.20;;;;;;;;;;510243;29;990;-87
2022/07/13 01:16:58;;;;;;;2.20;1.30;;;;;;;;;;510116;29;1371;-87
2022/07/13 01:17:13;;;;;;;2.13;1.20;;;;;;;;;;508166;29;1370;-87
2022/07/13 01:17:30;;;;;;;1.80;1.03;;;;;;;;;;504394;29;1183;-88
2022/07/13 01:17:46;;;;;;;2.33;1.08;;;;;;;;;;502481;29;1420;-87
2022/07/13 01:18:02;;;;;;;1.98;1.10;;;;;;;;;;503263;29;848;-88
2022/07/13 01:18:17;;;;;;;1.73;1.13;;;;;;;;;;505307;29;1200;-88
2022/07/13 01:18:33;;;;;;;2.95;1.20;;;;;;;;;;506333;29;1023;-87
2022/07/13 01:18:50;;;;;;;2.78;1.20;;;;;;;;;;508527;29;1309;-84
2022/07/13 01:19:09;;;;;;;1.65;1.00;;;;;;;;;;509043;29;1020;-84
2022/07/13 01:19:25;;;;;;;1.63;1.10;;;;;;;;;;508324;29;1268;-84
2022/07/13 01:19:41;;;;;;;1.73;1.20;;;;;;;;;;509256;29;1989;-84
2022/07/13 01:19:58;;;;;;;1.40;1.20;;;;;;;;;;510349;29;1404;-85
2022/07/13 01:20:14;;;;;;;1.92;1.27;;;;;;;;;;510367;29;833;-85
2022/07/13 01:20:30;;;;;;;3.95;1.30;;;;;;;;;;510364;29;837;-85
2022/07/13 01:20:46;;;;;;;3.15;1.20;;;;;;;;;;510172;29;912;-84
2022/07/13 01:21:01;;;;;;;1.70;1.20;;;;;;;;;;510218;29;872;-84
2022/07/13 01:21:18;;;;;;;2.00;1.25;;;;;;;;;;510162;29;988;-84
2022/07/13 01:21:36;;;;;;;1.35;1.20;;;;;;;;;;510215;29;904;-84
2022/07/13 01:22:00;;;;;;;2.67;1.30;;;;;;;;;;510243;29;966;-84
2022/07/13 01:22:20;;;;;;;3.03;1.25;;;;;;;;;;510452;29;856;-84
2022/07/13 01:22:43;;;;;;;2.65;1.20;;;;;;;;;;512169;28;1260;-85
2022/07/13 01:23:09;;;;;;;1.85;1.25;;;;;;;;;;510214;29;1526;-84
2022/07/13 01:23:25;;;;;;;2.03;1.40;;;;;;;;;;510328;29;1002;-84
2022/07/13 01:23:41;;;;;;;2.50;1.30;;;;;;;;;;510341;29;892;-84
2022/07/13 01:23:56;;;;;;;1.88;1.20;;;;;;;;;;510378;29;1268;-84
2022/07/13 01:24:12;;;;;;;2.27;1.20;;;;;;;;;;510529;29;905;-85
2022/07/13 01:24:32;;;;;;;2.88;1.20;;;;;;;;;;510567;29;1305;-84
2022/07/13 01:24:49;;;;;;;1.98;1.20;;;;;;;;;;511023;29;1214;-84
2022/07/13 01:25:05;;;;;;;1.80;1.10;;;;;;;;;;512792;29;1323;-85
2022/07/13 01:25:20;;;;;;;1.85;1.10;;;;;;;;;;512965;29;828;-85
2022/07/13 01:25:36;;;;;;;1.80;1.23;;;;;;;;;;512836;29;821;-85
2022/07/13 01:25:55;;;;;;;2.00;1.23;;;;;;;;;;512923;29;892;-84
2022/07/13 01:26:11;;;;;;;2.03;1.30;;;;;;;;;;512920;29;1371;-84
2022/07/13 01:26:27;;;;;;;1.70;1.27;;;;;;;;;;512954;29;881;-84
2022/07/13 01:26:42;;;;;;;1.50;1.10;;;;;;;;;;513087;29;1011;-84
2022/07/13 01:26:59;;;;;;;1.50;1.17;;;;;;;;;;511973;29;1035;-84
2022/07/13 01:27:15;;;;;;;1.98;1.20;;;;;;;;;;510720;29;1256;-84
2022/07/13 01:27:33;;;;;;;2.00;1.20;;;;;;;;;;511747;29;1158;-83
2022/07/13 01:27:49;;;;;;;2.13;1.20;;;;;;;;;;512014;29;1376;-84
2022/07/13 01:28:05;;;;;;;2.60;1.10;;;;;;;;;;512276;29;978;-84
2022/07/13 01:28:21;;;;;;;1.77;1.17;;;;;;;;;;512400;29;918;-84
2022/07/13 01:28:36;;;;;;;1.83;1.10;;;;;;;;;;512300;29;879;-84
2022/07/13 01:28:52;;;;;;;2.78;1.20;;;;;;;;;;512254;29;1320;-84
2022/07/13 01:29:08;;;;;;;2.27;1.17;;;;;;;;;;512238;29;884;-84
2022/07/13 01:29:23;;;;;;;1.48;1.00;;;;;;;;;;512281;29;928;-84
2022/07/13 01:29:39;;;;;;;1.25;1.10;;;;;;;;;;509522;29;1044;-84
2022/07/13 01:29:54;;;;;;;1.50;1.20;;;;;;;;;;508456;29;1409;-84
2022/07/13 01:30:10;;;;;;;1.45;1.10;;;;;;;;;;506328;29;1195;-84
2022/07/13 01:30:25;;;;;;;1.70;1.20;;;;;;;;;;506366;29;1330;-84
2022/07/13 01:30:43;;;;;;;1.45;1.15;;;;;;;;;;506647;29;806;-84
2022/07/13 01:30:58;;;;;;;1.23;1.10;;;;;;;;;;508060;29;1389;-84
2022/07/13 01:31:35;;;;;;;1.47;1.20;;;;;;;;;;508033;29;1350;-84
2022/07/13 01:31:50;;;;;;;2.08;1.30;;;;;;;;;;510077;29;852;-85
2022/07/13 01:32:06;;;;;;;2.90;1.33;;;;;;;;;;511361;29;1091;-84
2022/07/13 01:32:21;;;;;;;2.33;1.20;;;;;;;;;;511077;29;1434;-84
2022/07/13 01:32:50;;;;;;;1.20;1.10;;;;;;;;;;510232;29;1050;-84
2022/07/13 01:33:06;;;;;;;1.52;1.20;;;;;;;;;;510142;29;877;-84
2022/07/13 01:33:21;;;;;;;2.22;1.30;;;;;;;;;;510272;29;836;-84
2022/07/13 01:33:37;;;;;;;2.77;1.30;;;;;;;;;;509986;29;1310;-84
2022/07/13 01:33:52;;;;;;;2.00;1.27;;;;;;;;;;510270;29;837;-84
2022/07/13 01:34:09;;;;;;;3.17;1.30;;;;;;;;;;510312;29;967;-84
2022/07/13 01:34:24;;;;;;;3.65;1.33;;;;;;;;;;508180;29;1483;-84
2022/07/13 01:34:39;;;;;;;1.67;1.17;;;;;;;;;;508303;29;1028;-84
2022/07/13 01:34:57;;;;;;;1.40;1.10;;;;;;;;;;508306;29;1274;-84
2022/07/13 01:35:14;;;;;;;1.38;1.10;;;;;;;;;;508456;29;1141;-84
2022/07/13 01:35:29;;;;;;;1.40;1.08;;;;;;;;;;509332;29;936;-84
2022/07/13 01:35:45;;;;;;;1.30;1.10;;;;;;;;;;510119;29;1351;-84
2022/07/13 01:36:00;;;;;;;1.70;1.15;;;;;;;;;;510170;29;912;-84
2022/07/13 01:36:15;;;;;;;1.70;1.17;;;;;;;;;;510283;29;1202;-84
2022/07/13 01:36:33;;;;;;;1.67;1.10;;;;;;;;;;510187;29;1242;-84
2022/07/13 01:36:48;;;;;;;2.10;1.20;;;;;;;;;;510283;29;996;-84
2022/07/13 01:37:04;;;;;;;2.07;1.20;;;;;;;;;;510268;29;857;-84
2022/07/13 01:37:19;;;;;;;1.55;1.13;;;;;;;;;;510260;29;1190;-84
2022/07/13 01:37:35;;;;;;;1.67;1.10;;;;;;;;;;510921;29;1131;-84
2022/07/13 01:37:52;;;;;;;1.38;1.00;;;;;;;;;;512323;29;888;-84
2022/07/13 01:38:08;;;;;;;1.20;1.00;;;;;;;;;;509656;29;1421;-84
2022/07/13 01:38:24;;;;;;;1.52;1.13;;;;;;;;;;508319;29;1004;-84
2022/07/13 01:38:39;;;;;;;2.50;1.40;;;;;;;;;;508323;29;1305;-84
2022/07/13 01:38:56;;;;;;;2.27;1.30;;;;;;;;;;508183;29;913;-84
2022/07/13 01:39:12;;;;;;;1.30;1.10;;;;;;;;;;508104;29;1246;-84
2022/07/13 01:39:27;;;;;;;1.23;1.10;;;;;;;;;;508853;29;971;-84
2022/07/13 01:39:43;;;;;;;1.60;1.20;;;;;;;;;;510012;29;1964;-84